createdAt,value
2022-11-26T00:00:53.637Z,96.00
2022-11-26T00:01:53.678Z,87.00
2022-11-26T00:02:53.765Z,94.90
2022-11-26T00:03:53.650Z,107.10
2022-11-26T00:04:53.590Z,98.10
2022-11-26T00:05:53.578Z,87.60
2022-11-26T00:06:53.566Z,104.50
2022-11-26T00:07:53.881Z,86.60
2022-11-26T00:08:53.548Z,77.60
2022-11-26T00:09:53.540Z,99.50
2022-11-26T00:10:53.530Z,76.90
2022-11-26T00:11:53.509Z,78.10
2022-11-26T00:12:53.500Z,75.70
2022-11-26T00:13:53.488Z,100.50
2022-11-26T00:14:53.504Z,85.20
2022-11-26T00:15:53.462Z,110.40
2022-11-26T00:16:53.535Z,93.90
2022-11-26T00:17:53.441Z,103.90
2022-11-26T00:18:53.432Z,82.60
2022-11-26T00:19:53.448Z,99.80
2022-11-26T00:20:53.415Z,114.10
2022-11-26T00:21:53.401Z,98.20
2022-11-26T00:22:53.386Z,142.30
2022-11-26T00:23:53.373Z,100.40
2022-11-26T00:24:53.363Z,78.20
2022-11-26T00:25:53.350Z,79.40
2022-11-26T00:26:53.341Z,79.10
2022-11-26T00:27:53.330Z,86.80
2022-11-26T00:28:53.319Z,112.40
2022-11-26T00:29:53.342Z,97.10
2022-11-26T00:30:53.373Z,101.80
2022-11-26T00:31:53.432Z,87.40
2022-11-26T00:32:53.366Z,122.80
2022-11-26T00:33:53.396Z,70.40
2022-11-26T00:34:53.397Z,146.40
2022-11-26T00:35:53.270Z,117.70
2022-11-26T00:36:53.227Z,173.80
2022-11-26T00:37:53.216Z,57.40
2022-11-26T00:38:53.216Z,106.70
2022-11-26T00:39:53.192Z,84.40
2022-11-26T00:40:53.181Z,107.00
2022-11-26T00:41:53.175Z,86.40
2022-11-26T00:42:56.246Z,85.50
2022-11-26T00:43:53.145Z,91.60
2022-11-26T00:44:53.137Z,112.90
2022-11-26T00:45:53.195Z,113.40
2022-11-26T00:46:53.112Z,129.50
2022-11-26T00:47:53.099Z,95.70
2022-11-26T00:48:53.091Z,85.30
2022-11-26T00:49:53.076Z,131.60
2022-11-26T00:50:53.068Z,115.40
2022-11-26T00:51:53.080Z,109.30
2022-11-26T00:52:53.047Z,164.50
2022-11-26T00:53:53.033Z,82.40
2022-11-26T00:54:53.274Z,164.40
2022-11-26T00:55:53.019Z,215.20
2022-11-26T00:56:53.006Z,108.90
2022-11-26T00:57:52.989Z,109.00
2022-11-26T00:58:52.979Z,163.60
2022-11-26T00:59:52.967Z,96.80
2022-11-26T01:00:53.019Z,106.00
2022-11-26T01:01:53.024Z,128.60
2022-11-26T01:02:52.941Z,106.50
2022-11-26T01:03:52.929Z,90.50
2022-11-26T01:04:52.915Z,165.00
2022-11-26T01:05:52.917Z,126.20
2022-11-26T01:06:52.899Z,133.40
2022-11-26T01:07:53.043Z,231.10
2022-11-26T01:08:52.886Z,112.80
2022-11-26T01:09:52.865Z,126.90
2022-11-26T01:10:52.855Z,78.00
2022-11-26T01:11:54.495Z,68.70
2022-11-26T01:12:52.833Z,106.40
2022-11-26T01:13:52.821Z,95.10
2022-11-26T01:14:52.811Z,125.90
2022-11-26T01:15:52.798Z,113.70
2022-11-26T01:16:52.888Z,115.40
2022-11-26T01:17:52.777Z,102.80
2022-11-26T01:18:53.017Z,167.20
2022-11-26T01:19:52.755Z,111.10
2022-11-26T01:20:52.746Z,111.30
2022-11-26T01:21:52.736Z,88.00
2022-11-26T01:22:52.723Z,111.80
2022-11-26T01:23:52.743Z,79.90
2022-11-26T01:24:52.704Z,99.30
2022-11-26T01:25:52.708Z,104.90
2022-11-26T01:26:52.682Z,86.90
2022-11-26T01:27:52.669Z,81.30
2022-11-26T01:28:52.666Z,102.60
2022-11-26T01:29:52.650Z,121.70
2022-11-26T01:30:52.643Z,117.10
2022-11-26T01:31:52.723Z,89.20
2022-11-26T01:32:52.618Z,111.30
2022-11-26T01:33:52.608Z,143.50
2022-11-26T01:34:52.597Z,92.90
2022-11-26T01:35:52.587Z,117.10
2022-11-26T01:36:52.575Z,144.40
2022-11-26T01:37:52.564Z,82.60
2022-11-26T01:38:52.556Z,62.70
2022-11-26T01:39:52.566Z,103.00
2022-11-26T01:40:52.534Z,107.30
2022-11-26T01:41:52.529Z,86.10
2022-11-26T01:42:52.513Z,148.20
2022-11-26T01:43:52.497Z,98.50
2022-11-26T01:44:52.491Z,114.10
2022-11-26T01:45:52.504Z,168.60
2022-11-26T01:46:52.469Z,100.20
2022-11-26T01:47:52.460Z,86.90
2022-11-26T01:48:52.451Z,101.50
2022-11-26T01:49:52.439Z,90.50
2022-11-26T01:50:52.427Z,161.20
2022-11-26T01:51:52.411Z,120.60
2022-11-26T01:52:52.405Z,102.30
2022-11-26T01:53:52.389Z,112.50
2022-11-26T01:54:52.390Z,94.70
2022-11-26T01:55:52.394Z,94.80
2022-11-26T01:56:52.359Z,125.60
2022-11-26T01:57:52.346Z,107.70
2022-11-26T01:58:52.339Z,95.40
2022-11-26T01:59:52.326Z,113.30
2022-11-26T02:00:52.355Z,112.70
2022-11-26T02:01:52.352Z,135.10
2022-11-26T02:02:52.291Z,96.60
2022-11-26T02:03:52.284Z,84.70
2022-11-26T02:04:52.276Z,88.50
2022-11-26T02:05:52.257Z,87.10
2022-11-26T02:06:52.347Z,96.60
2022-11-26T02:07:52.332Z,114.70
2022-11-26T02:08:52.226Z,81.90
2022-11-26T02:09:52.212Z,164.50
2022-11-26T02:10:52.212Z,104.50
2022-11-26T02:11:52.214Z,138.90
2022-11-26T02:12:52.184Z,156.40
2022-11-26T02:13:52.181Z,115.30
2022-11-26T02:14:52.159Z,142.60
2022-11-26T02:15:52.146Z,96.00
2022-11-26T02:16:52.189Z,146.20
2022-11-26T02:17:52.124Z,122.60
2022-11-26T02:18:52.118Z,114.30
2022-11-26T02:19:52.102Z,146.60
2022-11-26T02:20:52.095Z,156.40
2022-11-26T02:21:52.085Z,102.50
2022-11-26T02:22:52.071Z,102.60
2022-11-26T02:23:52.062Z,132.80
2022-11-26T02:24:52.048Z,132.90
2022-11-26T02:25:52.037Z,115.30
2022-11-26T02:26:52.024Z,144.00
2022-11-26T02:27:52.041Z,148.90
2022-11-26T02:28:52.003Z,142.40
2022-11-26T02:29:51.992Z,247.40
2022-11-26T02:30:51.981Z,221.50
2022-11-26T02:31:52.178Z,192.00
2022-11-26T02:32:51.958Z,293.20
2022-11-26T02:33:51.949Z,186.20
2022-11-26T02:34:51.938Z,305.40
2022-11-26T02:35:51.928Z,278.20
2022-11-26T02:36:51.914Z,265.40
2022-11-26T02:37:51.906Z,228.00
2022-11-26T02:38:51.894Z,281.10
2022-11-26T02:39:51.886Z,279.60
2022-11-26T02:40:51.875Z,449.40
2022-11-26T02:41:51.859Z,437.00
2022-11-26T02:42:51.848Z,332.10
2022-11-26T02:43:51.861Z,224.90
2022-11-26T02:44:51.827Z,457.00
2022-11-26T02:45:51.854Z,228.70
2022-11-26T02:46:51.806Z,225.10
2022-11-26T02:47:51.793Z,212.60
2022-11-26T02:48:51.790Z,191.40
2022-11-26T02:49:51.777Z,229.20
2022-11-26T02:50:51.760Z,274.50
2022-11-26T02:51:51.749Z,238.60
2022-11-26T02:52:51.739Z,330.30
2022-11-26T02:53:51.737Z,302.30
2022-11-26T02:54:51.825Z,274.10
2022-11-26T02:55:51.706Z,494.10
2022-11-26T02:56:51.703Z,350.10
2022-11-26T02:57:51.684Z,386.30
2022-11-26T02:58:51.675Z,483.60
2022-11-26T02:59:51.690Z,476.80
2022-11-26T03:00:51.714Z,503.00
2022-11-26T03:01:51.641Z,553.00
2022-11-26T03:02:51.627Z,485.60
2022-11-26T03:03:51.744Z,571.10
2022-11-26T03:04:51.607Z,525.80
2022-11-26T03:05:51.599Z,368.30
2022-11-26T03:06:51.586Z,372.20
2022-11-26T03:07:51.714Z,422.80
2022-11-26T03:08:51.563Z,323.90
2022-11-26T03:09:51.553Z,300.60
2022-11-26T03:10:51.541Z,410.80
2022-11-26T03:11:51.592Z,320.20
2022-11-26T03:12:51.521Z,316.70
2022-11-26T03:13:51.514Z,362.30
2022-11-26T03:14:51.498Z,315.40
2022-11-26T03:15:51.513Z,239.60
2022-11-26T03:16:51.565Z,242.90
2022-11-26T03:17:51.466Z,259.10
2022-11-26T03:18:51.452Z,256.20
2022-11-26T03:19:51.449Z,351.90
2022-11-26T03:20:52.634Z,250.80
2022-11-26T03:21:51.422Z,282.90
2022-11-26T03:22:51.410Z,226.90
2022-11-26T03:23:51.400Z,287.70
2022-11-26T03:24:51.389Z,271.40
2022-11-26T03:25:51.387Z,272.40
2022-11-26T03:26:51.366Z,254.70
2022-11-26T03:27:51.357Z,263.30
2022-11-26T03:28:51.345Z,332.30
2022-11-26T03:29:51.338Z,213.60
2022-11-26T03:30:51.326Z,171.30
2022-11-26T03:31:51.391Z,177.20
2022-11-26T03:32:51.300Z,255.90
2022-11-26T03:33:51.292Z,288.40
2022-11-26T03:34:51.282Z,256.70
2022-11-26T03:35:51.272Z,286.50
2022-11-26T03:36:51.258Z,140.40
2022-11-26T03:37:51.252Z,264.50
2022-11-26T03:38:51.237Z,271.70
2022-11-26T03:39:51.230Z,376.50
2022-11-26T03:40:51.214Z,344.00
2022-11-26T03:41:51.206Z,309.40
2022-11-26T03:42:51.195Z,344.40
2022-11-26T03:43:51.181Z,201.40
2022-11-26T03:44:51.175Z,241.60
2022-11-26T03:45:51.240Z,226.90
2022-11-26T03:46:51.150Z,234.10
2022-11-26T03:47:51.161Z,115.80
2022-11-26T03:48:51.127Z,133.20
2022-11-26T03:49:51.125Z,172.00
2022-11-26T03:50:51.108Z,135.70
2022-11-26T03:51:51.097Z,222.20
2022-11-26T03:52:51.087Z,268.70
2022-11-26T03:53:51.080Z,319.70
2022-11-26T03:54:51.064Z,340.80
2022-11-26T03:55:51.056Z,250.80
2022-11-26T03:56:51.043Z,181.70
2022-11-26T03:57:51.032Z,198.80
2022-11-26T03:58:51.018Z,216.30
2022-11-26T03:59:51.009Z,269.70
2022-11-26T04:00:50.998Z,243.00
2022-11-26T04:01:51.062Z,179.00
2022-11-26T04:02:51.131Z,215.20
2022-11-26T04:03:50.996Z,209.90
2022-11-26T04:04:50.956Z,201.20
2022-11-26T04:05:50.946Z,243.50
2022-11-26T04:06:50.936Z,295.00
2022-11-26T04:07:50.955Z,230.80
2022-11-26T04:08:50.912Z,234.20
2022-11-26T04:09:50.904Z,142.40
2022-11-26T04:10:50.892Z,216.70
2022-11-26T04:11:50.879Z,148.20
2022-11-26T04:12:50.871Z,203.40
2022-11-26T04:13:50.863Z,248.60
2022-11-26T04:14:50.846Z,138.90
2022-11-26T04:15:50.838Z,106.20
2022-11-26T04:16:50.877Z,111.50
2022-11-26T04:17:50.813Z,111.80
2022-11-26T04:18:50.804Z,139.30
2022-11-26T04:19:50.827Z,133.40
2022-11-26T04:20:53.269Z,144.10
2022-11-26T04:21:50.772Z,97.20
2022-11-26T04:22:50.760Z,134.00
2022-11-26T04:23:50.760Z,81.00
2022-11-26T04:24:50.735Z,92.70
2022-11-26T04:25:50.729Z,133.30
2022-11-26T04:26:50.719Z,157.20
2022-11-26T04:27:50.706Z,176.20
2022-11-26T04:28:50.749Z,289.60
2022-11-26T04:29:50.685Z,186.40
2022-11-26T04:30:50.676Z,149.00
2022-11-26T04:31:50.738Z,125.60
2022-11-26T04:32:50.654Z,144.40
2022-11-26T04:33:50.645Z,130.10
2022-11-26T04:34:50.629Z,120.70
2022-11-26T04:35:50.651Z,112.00
2022-11-26T04:36:50.608Z,95.70
2022-11-26T04:37:50.598Z,112.30
2022-11-26T04:38:50.634Z,108.50
2022-11-26T04:39:50.577Z,80.70
2022-11-26T04:40:50.567Z,110.00
2022-11-26T04:41:50.555Z,116.30
2022-11-26T04:42:50.542Z,116.00
2022-11-26T04:43:50.534Z,79.80
2022-11-26T04:44:50.520Z,120.40
2022-11-26T04:45:50.586Z,136.10
2022-11-26T04:46:50.497Z,129.30
2022-11-26T04:47:50.491Z,101.80
2022-11-26T04:48:50.479Z,91.10
2022-11-26T04:49:50.467Z,101.80
2022-11-26T04:50:50.454Z,97.10
2022-11-26T04:51:50.467Z,81.00
2022-11-26T04:52:50.431Z,94.00
2022-11-26T04:53:54.626Z,120.70
2022-11-26T04:54:50.412Z,88.40
2022-11-26T04:55:50.400Z,102.70
2022-11-26T04:56:50.388Z,80.70
2022-11-26T04:57:50.383Z,120.20
2022-11-26T04:58:50.371Z,119.10
2022-11-26T04:59:50.355Z,122.80
2022-11-26T05:00:51.116Z,79.70
2022-11-26T05:01:50.336Z,97.20
2022-11-26T05:02:50.423Z,95.50
2022-11-26T05:03:50.316Z,106.40
2022-11-26T05:04:50.303Z,115.10
2022-11-26T05:05:50.291Z,95.10
2022-11-26T05:06:50.280Z,93.80
2022-11-26T05:07:50.360Z,121.30
2022-11-26T05:08:50.257Z,94.00
2022-11-26T05:09:50.251Z,114.70
2022-11-26T05:10:50.237Z,143.20
2022-11-26T05:11:50.226Z,140.20
2022-11-26T05:12:50.217Z,136.30
2022-11-26T05:13:50.205Z,116.10
2022-11-26T05:14:50.192Z,149.20
2022-11-26T05:15:50.193Z,125.10
2022-11-26T05:16:50.284Z,132.60
2022-11-26T05:17:50.164Z,142.90
2022-11-26T05:18:50.153Z,114.30
2022-11-26T05:19:50.141Z,149.70
2022-11-26T05:20:50.131Z,131.80
2022-11-26T05:21:50.129Z,112.10
2022-11-26T05:22:50.105Z,127.90
2022-11-26T05:23:50.123Z,149.10
2022-11-26T05:24:50.084Z,129.70
2022-11-26T05:25:50.075Z,130.70
2022-11-26T05:26:53.754Z,182.60
2022-11-26T05:27:51.079Z,104.20
2022-11-26T05:28:50.051Z,118.50
2022-11-26T05:29:50.031Z,134.20
2022-11-26T05:30:50.024Z,114.00
2022-11-26T05:31:50.100Z,164.50
2022-11-26T05:32:49.998Z,157.60
2022-11-26T05:33:50.023Z,130.80
2022-11-26T05:34:49.976Z,186.20
2022-11-26T05:35:49.969Z,152.70
2022-11-26T05:36:49.953Z,145.20
2022-11-26T05:37:49.948Z,197.20
2022-11-26T05:38:49.975Z,164.90
2022-11-26T05:39:49.950Z,205.70
2022-11-26T05:40:49.908Z,158.70
2022-11-26T05:41:49.906Z,171.50
2022-11-26T05:42:49.889Z,202.20
2022-11-26T05:43:49.883Z,175.00
2022-11-26T05:44:49.869Z,164.90
2022-11-26T05:45:49.870Z,205.40
2022-11-26T05:46:49.845Z,198.90
2022-11-26T05:47:49.837Z,239.90
2022-11-26T05:48:49.829Z,210.30
2022-11-26T05:49:49.814Z,191.20
2022-11-26T05:50:54.344Z,219.10
2022-11-26T05:51:49.791Z,277.60
2022-11-26T05:52:49.781Z,245.50
2022-11-26T05:53:49.784Z,284.30
2022-11-26T05:54:49.757Z,200.70
2022-11-26T05:55:49.782Z,285.30
2022-11-26T05:56:52.055Z,408.40
2022-11-26T05:57:49.729Z,317.30
2022-11-26T05:58:49.735Z,324.00
2022-11-26T05:59:49.707Z,242.60
2022-11-26T06:00:49.692Z,305.50
2022-11-26T06:01:49.737Z,472.30
2022-11-26T06:02:49.781Z,615.00
2022-11-26T06:03:49.734Z,655.00
2022-11-26T06:04:49.649Z,503.20
2022-11-26T06:05:49.639Z,800.70
2022-11-26T06:06:49.626Z,667.40
2022-11-26T06:07:49.664Z,664.80
2022-11-26T06:08:49.603Z,791.20
2022-11-26T06:09:49.594Z,724.70
2022-11-26T06:10:49.583Z,791.50
2022-11-26T06:11:49.602Z,708.20
2022-11-26T06:12:49.559Z,721.90
2022-11-26T06:13:49.556Z,720.50
2022-11-26T06:14:49.829Z,742.80
2022-11-26T06:15:49.527Z,740.50
2022-11-26T06:16:49.659Z,721.20
2022-11-26T06:17:49.510Z,718.70
2022-11-26T06:18:49.496Z,736.20
2022-11-26T06:19:49.486Z,719.40
2022-11-26T06:20:49.474Z,771.60
2022-11-26T06:21:49.463Z,647.80
2022-11-26T06:22:49.453Z,739.00
2022-11-26T06:23:55.850Z,753.60
2022-11-26T06:24:50.458Z,805.60
2022-11-26T06:25:49.419Z,753.30
2022-11-26T06:26:49.406Z,787.10
2022-11-26T06:27:49.424Z,789.40
2022-11-26T06:28:49.385Z,656.60
2022-11-26T06:29:49.376Z,658.60
2022-11-26T06:30:49.368Z,653.20
2022-11-26T06:31:49.403Z,706.60
2022-11-26T06:32:49.347Z,729.40
2022-11-26T06:33:49.336Z,731.10
2022-11-26T06:34:53.809Z,667.80
2022-11-26T06:35:49.319Z,729.10
2022-11-26T06:36:49.302Z,697.70
2022-11-26T06:37:49.291Z,612.20
2022-11-26T06:38:49.280Z,698.90
2022-11-26T06:39:49.267Z,684.30
2022-11-26T06:40:49.261Z,702.00
2022-11-26T06:41:49.247Z,604.10
2022-11-26T06:42:49.239Z,813.50
2022-11-26T06:43:49.246Z,747.60
2022-11-26T06:44:49.218Z,726.70
2022-11-26T06:45:49.267Z,776.20
2022-11-26T06:46:49.197Z,660.00
2022-11-26T06:47:49.186Z,771.20
2022-11-26T06:48:49.175Z,618.40
2022-11-26T06:49:49.162Z,656.10
2022-11-26T06:50:49.154Z,775.50
2022-11-26T06:51:49.141Z,680.70
2022-11-26T06:52:49.132Z,698.20
2022-11-26T06:53:49.121Z,678.10
2022-11-26T06:54:49.112Z,724.10
2022-11-26T06:55:49.101Z,595.70
2022-11-26T06:56:49.091Z,751.70
2022-11-26T06:57:49.079Z,706.50
2022-11-26T06:58:49.067Z,657.80
2022-11-26T06:59:49.080Z,684.80
2022-11-26T07:00:49.047Z,675.00
2022-11-26T07:01:49.245Z,807.70
2022-11-26T07:02:49.068Z,709.90
2022-11-26T07:03:49.010Z,808.90
2022-11-26T07:04:48.998Z,638.90
2022-11-26T07:05:48.988Z,708.90
2022-11-26T07:06:48.978Z,812.40
2022-11-26T07:07:49.012Z,779.80
2022-11-26T07:08:48.952Z,849.80
2022-11-26T07:09:48.944Z,689.60
2022-11-26T07:10:49.424Z,633.00
2022-11-26T07:11:48.926Z,830.90
2022-11-26T07:12:48.909Z,846.10
2022-11-26T07:13:48.894Z,734.70
2022-11-26T07:14:48.893Z,650.10
2022-11-26T07:15:48.996Z,678.80
2022-11-26T07:16:48.863Z,702.50
2022-11-26T07:17:48.856Z,808.90
2022-11-26T07:18:48.843Z,773.80
2022-11-26T07:19:48.826Z,762.50
2022-11-26T07:20:48.817Z,677.60
2022-11-26T07:21:48.809Z,754.70
2022-11-26T07:22:48.795Z,626.30
2022-11-26T07:23:48.800Z,763.80
2022-11-26T07:24:48.778Z,767.80
2022-11-26T07:25:48.760Z,762.60
2022-11-26T07:26:48.751Z,640.40
2022-11-26T07:27:48.742Z,760.90
2022-11-26T07:28:48.728Z,725.50
2022-11-26T07:29:48.715Z,696.60
2022-11-26T07:30:48.706Z,764.80
2022-11-26T07:31:48.739Z,757.50
2022-11-26T07:32:48.683Z,703.00
2022-11-26T07:33:48.670Z,602.40
2022-11-26T07:34:48.659Z,556.80
2022-11-26T07:35:48.645Z,664.90
2022-11-26T07:36:48.636Z,687.10
2022-11-26T07:37:48.625Z,690.40
2022-11-26T07:38:48.612Z,667.80
2022-11-26T07:39:48.600Z,671.40
2022-11-26T07:40:48.589Z,657.00
2022-11-26T07:41:48.585Z,642.10
2022-11-26T07:42:53.039Z,726.20
2022-11-26T07:43:48.635Z,670.40
2022-11-26T07:44:48.545Z,612.70
2022-11-26T07:45:48.664Z,705.50
2022-11-26T07:46:48.521Z,671.30
2022-11-26T07:47:48.534Z,669.70
2022-11-26T07:48:48.497Z,616.40
2022-11-26T07:49:48.486Z,661.10
2022-11-26T07:50:48.478Z,643.60
2022-11-26T07:51:48.463Z,731.20
2022-11-26T07:52:48.452Z,600.00
2022-11-26T07:53:48.440Z,627.10
2022-11-26T07:54:48.433Z,671.00
2022-11-26T07:55:48.419Z,667.20
2022-11-26T07:56:48.407Z,572.70
2022-11-26T07:57:48.402Z,662.50
2022-11-26T07:58:48.391Z,628.70
2022-11-26T07:59:48.371Z,667.00
2022-11-26T08:00:53.200Z,727.10
2022-11-26T08:01:48.422Z,683.00
2022-11-26T08:02:48.401Z,659.80
2022-11-26T08:03:48.360Z,610.80
2022-11-26T08:04:48.321Z,673.90
2022-11-26T08:05:48.314Z,579.90
2022-11-26T08:06:48.298Z,625.80
2022-11-26T08:07:48.325Z,680.60
2022-11-26T08:08:48.279Z,677.30
2022-11-26T08:09:48.263Z,660.00
2022-11-26T08:10:48.259Z,668.50
2022-11-26T08:11:48.248Z,717.00
2022-11-26T08:12:48.238Z,686.10
2022-11-26T08:13:48.311Z,664.30
2022-11-26T08:14:48.218Z,610.10
2022-11-26T08:15:48.205Z,639.50
2022-11-26T08:16:48.274Z,599.40
2022-11-26T08:17:48.189Z,608.50
2022-11-26T08:18:48.189Z,553.60
2022-11-26T08:19:48.227Z,558.40
2022-11-26T08:20:48.207Z,548.20
2022-11-26T08:21:48.153Z,611.40
2022-11-26T08:22:48.130Z,695.30
2022-11-26T08:23:48.115Z,661.70
2022-11-26T08:24:48.106Z,723.70
2022-11-26T08:26:13.994Z,629.90
2022-11-26T08:26:48.084Z,589.80
2022-11-26T08:27:48.073Z,626.80
2022-11-26T08:28:48.067Z,674.50
2022-11-26T08:29:48.049Z,656.50
2022-11-26T08:30:48.041Z,637.50
2022-11-26T08:31:48.076Z,639.00
2022-11-26T08:32:48.024Z,660.70
2022-11-26T08:33:48.011Z,493.80
2022-11-26T08:34:47.995Z,558.40
2022-11-26T08:36:05.882Z,635.40
2022-11-26T08:36:48.997Z,554.10
2022-11-26T08:37:47.960Z,681.20
2022-11-26T08:38:47.951Z,499.70
2022-11-26T08:39:47.942Z,581.60
2022-11-26T08:40:47.930Z,583.30
2022-11-26T08:41:51.915Z,574.40
2022-11-26T08:42:47.907Z,598.90
2022-11-26T08:44:47.887Z,586.90
2022-11-26T08:45:47.893Z,624.80
2022-11-26T08:46:47.863Z,580.90
2022-11-26T08:47:47.851Z,617.40
2022-11-26T08:48:47.841Z,571.00
2022-11-26T08:49:47.828Z,646.60
2022-11-26T08:50:47.819Z,572.90
2022-11-26T08:51:47.830Z,558.00
2022-11-26T08:52:47.798Z,576.90
2022-11-26T08:53:47.834Z,649.50
2022-11-26T08:54:48.138Z,601.70
2022-11-26T08:56:00.048Z,580.90
2022-11-26T08:56:48.779Z,546.00
2022-11-26T08:57:47.743Z,498.00
2022-11-26T08:58:47.748Z,455.00
2022-11-26T08:59:47.718Z,501.20
2022-11-26T09:00:47.707Z,463.70
2022-11-26T09:01:47.734Z,485.70
2022-11-26T09:02:47.938Z,523.90
2022-11-26T09:03:47.804Z,543.00
2022-11-26T09:04:47.671Z,527.40
2022-11-26T09:05:47.653Z,588.50
2022-11-26T09:06:47.644Z,578.20
2022-11-26T09:07:49.184Z,547.60
2022-11-26T09:08:47.622Z,545.00
2022-11-26T09:09:47.609Z,472.10
2022-11-26T09:10:47.601Z,555.30
2022-11-26T09:11:47.586Z,444.20
2022-11-26T09:12:47.579Z,486.40
2022-11-26T09:13:47.563Z,561.40
2022-11-26T09:14:47.582Z,496.30
2022-11-26T09:15:47.541Z,467.70
2022-11-26T09:16:47.641Z,568.00
2022-11-26T09:17:47.533Z,504.60
2022-11-26T09:18:47.512Z,541.70
2022-11-26T09:19:47.507Z,539.90
2022-11-26T09:20:47.577Z,511.10
2022-11-26T09:21:47.478Z,529.30
2022-11-26T09:22:47.477Z,555.80
2022-11-26T09:23:47.495Z,375.40
2022-11-26T09:24:47.445Z,463.60
2022-11-26T09:25:47.454Z,504.90
2022-11-26T09:26:47.442Z,417.00
2022-11-26T09:27:47.413Z,511.50
2022-11-26T09:28:47.401Z,547.00
2022-11-26T09:29:47.389Z,470.30
2022-11-26T09:30:47.382Z,411.90
2022-11-26T09:32:21.183Z,474.60
2022-11-26T09:32:48.518Z,413.10
2022-11-26T09:33:47.359Z,399.30
2022-11-26T09:34:47.336Z,463.20
2022-11-26T09:35:47.326Z,506.70
2022-11-26T09:36:47.312Z,470.60
2022-11-26T09:37:51.350Z,568.90
2022-11-26T09:38:47.293Z,521.60
2022-11-26T09:39:47.304Z,425.50
2022-11-26T09:40:47.273Z,504.80
2022-11-26T09:41:47.259Z,487.90
2022-11-26T09:42:47.250Z,430.20
2022-11-26T09:43:49.383Z,415.60
2022-11-26T09:44:47.227Z,379.30
2022-11-26T09:45:47.291Z,448.10
2022-11-26T09:47:10.395Z,435.80
2022-11-26T09:47:48.228Z,428.10
2022-11-26T09:48:47.183Z,412.10
2022-11-26T09:49:47.177Z,396.50
2022-11-26T09:50:47.160Z,319.50
2022-11-26T09:51:47.200Z,393.90
2022-11-26T09:52:47.135Z,491.90
2022-11-26T09:53:47.128Z,423.50
2022-11-26T09:54:47.116Z,481.90
2022-11-26T09:55:47.121Z,452.20
2022-11-26T09:56:47.093Z,429.10
2022-11-26T09:57:47.082Z,283.70
2022-11-26T09:58:47.088Z,399.60
2022-11-26T09:59:47.055Z,408.30
2022-11-26T10:00:47.106Z,475.40
2022-11-26T10:01:47.128Z,390.90
2022-11-26T10:02:47.028Z,560.90
2022-11-26T10:06:04.846Z,401.10
2022-11-26T10:06:58.822Z,338.90
2022-11-26T10:07:58.942Z,276.70
2022-11-26T10:08:58.802Z,361.80
2022-11-26T10:09:58.789Z,485.90
2022-11-26T10:13:11.302Z,244.60
2022-11-26T10:13:42.603Z,256.00
2022-11-26T10:14:42.054Z,282.00
2022-11-26T10:15:41.552Z,287.50
2022-11-26T10:16:41.628Z,241.20
2022-11-26T10:17:41.532Z,193.40
2022-11-26T10:18:41.525Z,314.60
2022-11-26T10:19:41.509Z,211.70
2022-11-26T10:20:41.498Z,240.00
2022-11-26T10:22:00.386Z,253.20
2022-11-26T10:22:42.499Z,179.50
2022-11-26T10:23:41.467Z,278.20
2022-11-26T10:24:42.020Z,184.20
2022-11-26T10:25:41.446Z,308.70
2022-11-26T10:26:41.435Z,305.20
2022-11-26T10:27:41.418Z,209.00
2022-11-26T10:28:41.432Z,360.30
2022-11-26T10:29:41.395Z,177.60
2022-11-26T10:30:41.384Z,381.30
2022-11-26T10:31:41.425Z,333.10
2022-11-26T10:32:41.363Z,225.90
2022-11-26T10:33:41.351Z,192.50
2022-11-26T10:34:41.756Z,161.90
2022-11-26T10:35:41.357Z,230.70
2022-11-26T10:36:41.319Z,159.00
2022-11-26T10:37:41.312Z,148.80
2022-11-26T10:38:41.299Z,176.60
2022-11-26T10:39:41.288Z,168.40
2022-11-26T10:40:41.278Z,136.20
2022-11-26T10:41:41.262Z,135.30
2022-11-26T10:42:41.252Z,162.80
2022-11-26T10:43:41.245Z,155.20
2022-11-26T10:44:41.798Z,148.00
2022-11-26T10:45:41.217Z,176.10
2022-11-26T10:46:41.272Z,166.90
2022-11-26T10:47:41.195Z,138.40
2022-11-26T10:48:41.185Z,147.60
2022-11-26T10:49:41.177Z,216.80
2022-11-26T10:50:47.658Z,149.10
2022-11-26T10:51:42.178Z,148.50
2022-11-26T10:52:41.153Z,170.90
2022-11-26T10:53:41.132Z,310.90
2022-11-26T10:54:41.672Z,370.90
2022-11-26T10:55:41.113Z,245.60
2022-11-26T10:56:41.099Z,131.00
2022-11-26T10:57:41.084Z,314.80
2022-11-26T10:58:41.074Z,165.50
2022-11-26T10:59:41.479Z,310.60
2022-11-26T11:00:41.128Z,136.50
2022-11-26T11:01:41.117Z,134.00
2022-11-26T11:02:41.062Z,167.10
2022-11-26T11:04:09.477Z,190.70
2022-11-26T11:04:42.288Z,130.00
2022-11-26T11:05:40.994Z,337.90
2022-11-26T11:06:40.983Z,190.40
2022-11-26T11:07:41.086Z,330.60
2022-11-26T11:08:40.962Z,142.00
2022-11-26T11:09:40.947Z,137.30
2022-11-26T11:10:40.939Z,122.90
2022-11-26T11:11:40.926Z,267.60
2022-11-26T11:12:40.914Z,185.70
2022-11-26T11:13:40.902Z,119.90
2022-11-26T11:14:43.564Z,155.60
2022-11-26T11:15:40.878Z,109.20
2022-11-26T11:16:41.006Z,175.40
2022-11-26T11:17:40.856Z,137.10
2022-11-26T11:18:40.846Z,138.90
2022-11-26T11:19:40.854Z,134.40
2022-11-26T11:20:40.826Z,291.60
2022-11-26T11:21:46.615Z,156.20
2022-11-26T11:22:41.828Z,134.50
2022-11-26T11:24:07.070Z,124.10
2022-11-26T11:24:42.056Z,154.30
2022-11-26T11:25:40.766Z,133.60
2022-11-26T11:26:40.755Z,364.20
2022-11-26T11:27:40.746Z,228.70
2022-11-26T11:28:40.738Z,181.60
2022-11-26T11:29:40.723Z,225.80
2022-11-26T11:30:40.709Z,136.30
2022-11-26T11:31:40.743Z,157.80
2022-11-26T11:32:40.746Z,136.20
2022-11-26T11:33:40.674Z,128.40
2022-11-26T11:34:40.953Z,295.00
2022-11-26T11:35:40.652Z,463.50
2022-11-26T11:36:40.642Z,266.60
2022-11-26T11:37:40.631Z,125.30
2022-11-26T11:38:40.620Z,197.40
2022-11-26T11:39:40.615Z,139.40
2022-11-26T11:40:40.601Z,183.90
2022-11-26T11:41:40.589Z,158.30
2022-11-26T11:42:40.608Z,127.40
2022-11-26T11:43:40.565Z,106.80
2022-11-26T11:44:40.913Z,143.00
2022-11-26T11:45:40.673Z,173.10
2022-11-26T11:46:40.534Z,143.40
2022-11-26T11:47:40.516Z,123.40
2022-11-26T11:48:40.532Z,148.50
2022-11-26T11:49:40.497Z,110.50
2022-11-26T11:50:40.490Z,90.60
2022-11-26T11:51:40.474Z,129.30
2022-11-26T11:52:40.464Z,115.30
2022-11-26T11:53:40.449Z,127.20
2022-11-26T11:54:40.986Z,137.40
2022-11-26T11:55:40.432Z,111.40
2022-11-26T11:56:40.420Z,135.00
2022-11-26T11:57:40.412Z,206.40
2022-11-26T11:58:40.397Z,177.90
2022-11-26T11:59:40.382Z,99.00
2022-11-26T12:00:40.377Z,108.70
2022-11-26T12:01:40.406Z,101.20
2022-11-26T12:02:40.351Z,90.90
2022-11-26T12:03:40.373Z,106.90
2022-11-26T12:04:40.589Z,94.90
2022-11-26T12:05:40.319Z,112.60
2022-11-26T12:06:40.308Z,99.60
2022-11-26T12:07:40.368Z,113.70
2022-11-26T12:08:40.285Z,108.20
2022-11-26T12:09:40.274Z,148.60
2022-11-26T12:10:40.264Z,110.60
2022-11-26T12:11:40.253Z,132.00
2022-11-26T12:12:40.240Z,121.30
2022-11-26T12:13:40.229Z,142.40
2022-11-26T12:14:40.213Z,108.40
2022-11-26T12:15:40.206Z,109.20
2022-11-26T12:16:40.263Z,106.30
2022-11-26T12:17:40.189Z,117.80
2022-11-26T12:18:40.170Z,98.70
2022-11-26T12:19:40.162Z,93.30
2022-11-26T12:20:40.171Z,139.50
2022-11-26T12:21:40.143Z,83.10
2022-11-26T12:22:40.126Z,71.00
2022-11-26T12:23:40.118Z,86.90
2022-11-26T12:24:40.371Z,93.70
2022-11-26T12:25:40.094Z,81.00
2022-11-26T12:26:40.081Z,104.10
2022-11-26T12:27:40.072Z,85.50
2022-11-26T12:28:40.066Z,124.50
2022-11-26T12:29:40.052Z,111.80
2022-11-26T12:30:40.108Z,126.00
2022-11-26T12:31:40.099Z,133.20
2022-11-26T12:32:40.014Z,121.90
2022-11-26T12:33:40.006Z,111.60
2022-11-26T12:34:40.399Z,97.60
2022-11-26T12:35:39.984Z,118.40
2022-11-26T12:36:39.994Z,118.30